Time;durP1;ratioP1;P1;durP2;ratioP2;P2;SDS_P1;SDS_P2;PMS_P1;PMS_P2;Temp;Humidity;BMP_temperature;BMP_pressure;BME280_temperature;BME280_humidity;BME280_pressure;Samples;Min_cycle;Max_cycle;Signal;HPM_P1;HPM_P2
2021/10/19 00:01:52;;;;;;;17.23;4.03;;;;;;;13.97;100.00;100105.78;4896732;29;20039;-92
2021/10/19 00:04:18;;;;;;;14.35;3.95;;;;;;;13.97;100.00;100091.44;4898001;29;20159;-93
2021/10/19 00:06:44;;;;;;;15.80;4.43;;;;;;;13.96;100.00;100090.59;4899393;29;20366;-91
2021/10/19 00:09:10;;;;;;;15.85;3.88;;;;;;;14.04;100.00;100101.16;4882155;29;20127;-92
2021/10/19 00:11:36;;;;;;;16.25;4.75;;;;;;;13.96;100.00;100085.19;4901715;29;20039;-91
2021/10/19 00:14:01;;;;;;;15.63;4.05;;;;;;;13.95;100.00;100080.03;4899431;29;20130;-92
2021/10/19 00:16:27;;;;;;;15.57;5.25;;;;;;;13.93;100.00;100071.28;4884498;29;20665;-91
2021/10/19 00:18:53;;;;;;;12.43;3.75;;;;;;;14.01;100.00;100093.50;4883688;29;20086;-91
2021/10/19 00:21:18;;;;;;;12.45;3.22;;;;;;;13.85;100.00;100066.97;4880584;29;20066;-91
2021/10/19 00:23:44;;;;;;;21.98;5.20;;;;;;;13.86;100.00;100065.91;4887979;29;20036;-91
2021/10/19 00:26:10;;;;;;;28.77;6.47;;;;;;;13.84;100.00;100065.31;4901425;29;20374;-91
2021/10/19 00:28:36;;;;;;;22.98;5.28;;;;;;;13.84;100.00;100062.59;4883575;29;20054;-91
2021/10/19 00:31:02;;;;;;;35.65;7.93;;;;;;;13.77;100.00;100051.00;4897186;29;20067;-91
2021/10/19 00:33:28;;;;;;;33.13;8.73;;;;;;;13.81;100.00;100066.56;4889256;29;20549;-91
2021/10/19 00:35:54;;;;;;;32.88;9.02;;;;;;;13.78;100.00;100058.88;4896982;29;21580;-93
2021/10/19 00:38:19;;;;;;;29.73;7.25;;;;;;;13.82;100.00;100060.09;4882986;29;20126;-91
2021/10/19 00:40:45;;;;;;;38.78;10.52;;;;;;;13.72;100.00;100024.59;4882160;29;20049;-92
2021/10/19 00:43:11;;;;;;;53.08;13.32;;;;;;;13.75;100.00;100037.69;4897853;29;20086;-91
2021/10/19 00:45:37;;;;;;;32.58;8.68;;;;;;;13.80;100.00;100045.16;4898342;29;20704;-92
2021/10/19 00:48:05;;;;;;;33.97;9.40;;;;;;;13.82;100.00;100045.78;4899013;29;20206;-91
2021/10/19 00:50:31;;;;;;;19.58;7.88;;;;;;;13.89;100.00;100061.94;4890285;29;20032;-92
2021/10/19 00:52:58;;;;;;;26.52;8.07;;;;;;;13.88;100.00;100066.53;4899015;29;20039;-92
2021/10/19 00:55:24;;;;;;;25.52;8.18;;;;;;;13.75;100.00;100037.69;4881210;29;20032;-92
2021/10/19 00:57:50;;;;;;;17.15;4.53;;;;;;;13.73;100.00;100028.94;4882425;29;20068;-92
2021/10/19 01:00:16;;;;;;;9.95;3.17;;;;;;;13.83;100.00;100055.53;4895245;29;20319;-92
2021/10/19 01:02:43;;;;;;;25.50;9.07;;;;;;;13.74;100.00;100033.34;4897811;29;20118;-92
2021/10/19 01:05:11;;;;;;;25.95;9.60;;;;;;;13.81;100.00;100036.00;4900376;29;20405;-93
2021/10/19 01:07:37;;;;;;;30.05;10.85;;;;;;;13.65;100.00;100004.88;4900473;29;20118;-91
2021/10/19 01:10:06;;;;;;;38.10;15.40;;;;;;;13.75;100.00;100023.34;4881602;29;20050;-92
2021/10/19 01:12:34;;;;;;;30.70;9.70;;;;;;;13.75;100.00;100012.53;4887502;29;20035;-91
2021/10/19 01:15:07;;;;;;;14.50;5.47;;;;;;;13.73;100.00;100006.53;4883245;29;20381;-94
2021/10/19 01:17:32;;;;;;;19.15;5.28;;;;;;;13.71;100.00;100003.22;4915026;29;20043;-93
2021/10/19 01:19:58;;;;;;;12.65;5.45;;;;;;;13.63;100.00;99991.59;4885276;29;20054;-93
2021/10/19 01:22:24;;;;;;;17.90;6.45;;;;;;;13.68;100.00;99990.13;4884761;29;20051;-94
2021/10/19 01:24:50;;;;;;;16.48;4.90;;;;;;;13.76;100.00;100003.38;4884500;29;20179;-92
2021/10/19 01:27:15;;;;;;;13.23;6.10;;;;;;;13.64;100.00;99981.63;4883351;29;20051;-93
2021/10/19 01:29:41;;;;;;;16.23;5.65;;;;;;;13.64;100.00;99974.34;4901086;29;20139;-91
2021/10/19 01:32:10;;;;;;;18.05;5.30;;;;;;;13.70;100.00;99979.94;4900429;29;20118;-92
2021/10/19 01:34:36;;;;;;;12.13;4.38;;;;;;;13.75;100.00;99988.22;4919480;29;20206;-93
2021/10/19 01:37:03;;;;;;;13.82;5.10;;;;;;;13.62;100.00;99970.19;4903354;29;20524;-92
2021/10/19 01:39:30;;;;;;;12.60;5.05;;;;;;;13.71;100.00;99984.31;4904259;29;20043;-92
2021/10/19 01:41:56;;;;;;;21.63;5.13;;;;;;;13.63;100.00;99971.88;4901191;29;20159;-91
2021/10/19 01:44:21;;;;;;;10.18;3.55;;;;;;;13.67;100.00;99974.97;4906619;29;20461;-91
2021/10/19 01:46:47;;;;;;;13.43;4.40;;;;;;;13.62;100.00;99959.41;4921680;29;20044;-93
2021/10/19 01:49:13;;;;;;;11.75;3.38;;;;;;;13.70;100.00;99982.63;4880960;29;20044;-91
2021/10/19 01:51:39;;;;;;;12.43;5.40;;;;;;;13.58;100.00;99958.19;4881495;29;20142;-92
2021/10/19 01:54:04;;;;;;;10.55;3.00;;;;;;;13.64;100.00;99973.53;4919623;29;20036;-92
2021/10/19 01:56:30;;;;;;;9.38;3.85;;;;;;;13.60;100.00;99970.44;4915045;29;20597;-92
2021/10/19 01:58:56;;;;;;;9.02;2.63;;;;;;;13.63;100.00;99975.41;4884717;29;20046;-94
2021/10/19 02:01:22;;;;;;;10.73;2.83;;;;;;;13.64;100.00;99976.22;4885848;29;20032;-92
2021/10/19 02:03:48;;;;;;;8.15;2.78;;;;;;;13.57;100.00;99965.44;4888204;29;20046;-94
2021/10/19 02:06:13;;;;;;;8.30;2.90;;;;;;;13.72;100.00;99980.56;4900003;29;20050;-92
2021/10/19 02:08:39;;;;;;;8.35;2.65;;;;;;;13.72;100.00;99977.84;4886612;29;20040;-93
2021/10/19 02:11:05;;;;;;;15.32;3.08;;;;;;;13.73;100.00;99974.91;4897865;29;20048;-92
2021/10/19 02:13:31;;;;;;;5.38;2.80;;;;;;;13.60;100.00;99958.78;4906628;29;20043;-93
2021/10/19 02:15:57;;;;;;;8.40;2.58;;;;;;;13.63;100.00;99955.66;4905561;29;20034;-91
2021/10/19 02:18:22;;;;;;;5.90;2.13;;;;;;;13.62;100.00;99938.59;4884444;29;20054;-89
2021/10/19 02:20:48;;;;;;;15.82;2.78;;;;;;;13.72;100.00;99954.38;4883952;29;20042;-91
2021/10/19 02:23:14;;;;;;;5.57;1.63;;;;;;;13.72;100.00;99951.66;4900266;29;20054;-92
2021/10/19 02:25:40;;;;;;;6.45;1.88;;;;;;;13.72;100.00;99948.97;4886336;29;20039;-91
2021/10/19 02:28:06;;;;;;;7.47;2.13;;;;;;;13.70;100.00;99942.13;4882955;29;20035;-89
2021/10/19 02:30:31;;;;;;;6.57;2.50;;;;;;;13.60;100.00;99919.13;4882204;29;20478;-91
2021/10/19 02:32:57;;;;;;;5.53;2.45;;;;;;;13.62;100.00;99919.69;4899718;29;20126;-91
2021/10/19 02:35:23;;;;;;;8.55;2.10;;;;;;;13.63;100.00;99931.34;4882483;29;20043;-90
2021/10/19 02:37:51;;;;;;;6.55;2.40;;;;;;;13.63;100.00;99928.66;4898509;29;20122;-88
2021/10/19 02:40:17;;;;;;;7.28;2.38;;;;;;;13.61;100.00;99928.88;4899784;29;20123;-88
2021/10/19 02:42:43;;;;;;;3.50;2.10;;;;;;;13.67;100.00;99942.56;4883610;29;20123;-88
2021/10/19 02:45:10;;;;;;;5.40;1.95;;;;;;;13.64;100.00;99923.03;4882754;29;20039;-88
2021/10/19 02:47:36;;;;;;;3.00;1.63;;;;;;;13.66;100.00;99933.63;4901391;29;20028;-89
2021/10/19 02:50:03;;;;;;;6.32;1.63;;;;;;;13.69;100.00;99930.47;4884429;29;20508;-88
2021/10/19 02:52:29;;;;;;;5.38;1.65;;;;;;;13.65;100.00;99918.44;4913983;29;20457;-89
2021/10/19 02:54:54;;;;;;;4.43;1.70;;;;;;;13.70;100.00;99920.50;4899146;29;20051;-88
2021/10/19 02:57:21;;;;;;;6.15;1.52;;;;;;;13.59;100.00;99895.81;4896364;29;20363;-89
2021/10/19 02:59:47;;;;;;;6.95;1.70;;;;;;;13.67;100.00;99894.75;4900756;29;20128;-88
2021/10/19 03:02:13;;;;;;;5.57;1.80;;;;;;;13.70;100.00;99893.47;4880639;29;20512;-88
2021/10/19 03:04:38;;;;;;;4.05;1.77;;;;;;;13.71;100.00;99889.75;4883018;29;20063;-87
2021/10/19 03:07:04;;;;;;;6.50;1.90;;;;;;;13.69;100.00;99875.63;4916080;29;20537;-89
2021/10/19 03:09:30;;;;;;;3.65;1.63;;;;;;;13.70;100.00;99880.81;4899106;29;20036;-89
2021/10/19 03:11:55;;;;;;;4.90;1.40;;;;;;;13.66;100.00;99881.47;4885444;29;20031;-88
2021/10/19 03:14:21;;;;;;;2.58;1.23;;;;;;;13.74;100.00;99886.63;4884774;29;20055;-89
2021/10/19 03:16:47;;;;;;;3.25;1.40;;;;;;;13.72;100.00;99886.81;4903674;29;20434;-89
2021/10/19 03:19:13;;;;;;;6.15;1.15;;;;;;;13.75;100.00;99882.84;4896880;29;20040;-89
2021/10/19 03:21:38;;;;;;;4.03;1.20;;;;;;;13.72;100.00;99869.78;4882558;29;20492;-89
2021/10/19 03:24:05;;;;;;;4.78;1.27;;;;;;;13.68;100.00;99850.50;4884621;29;20047;-88
2021/10/19 03:26:31;;;;;;;5.70;1.50;;;;;;;13.74;100.00;99857.72;4901152;29;20042;-88
2021/10/19 03:28:56;;;;;;;2.50;1.30;;;;;;;13.80;100.00;99850.59;4897693;29;20474;-89
2021/10/19 03:31:22;;;;;;;6.10;1.55;;;;;;;13.79;100.00;99844.38;4911411;29;20047;-89
2021/10/19 03:33:48;;;;;;;4.82;1.38;;;;;;;13.75;100.00;99836.94;4881198;29;20055;-89
2021/10/19 03:36:14;;;;;;;3.83;1.25;;;;;;;13.76;100.00;99831.31;4897802;29;20496;-89
2021/10/19 03:38:39;;;;;;;4.68;1.50;;;;;;;13.80;100.00;99829.00;4900003;29;20401;-88
2021/10/19 03:41:06;;;;;;;3.13;1.52;;;;;;;13.80;100.00;99829.00;4901021;29;20044;-88
2021/10/19 03:43:32;;;;;;;2.95;1.10;;;;;;;13.81;100.00;99815.28;4897310;29;20036;-89
2021/10/19 03:45:58;;;;;;;3.60;2.08;;;;;;;13.81;100.00;99814.44;4878353;29;20039;-89
2021/10/19 03:48:23;;;;;;;2.25;1.00;;;;;;;13.80;100.00;99812.78;4899030;29;20042;-88
2021/10/19 03:50:49;;;;;;;5.30;1.30;;;;;;;13.78;100.00;99804.88;4882978;29;20417;-88
2021/10/19 03:53:15;;;;;;;1.90;1.00;;;;;;;13.76;100.00;99784.53;4896765;29;20127;-88
2021/10/19 03:55:43;;;;;;;7.88;1.38;;;;;;;13.82;100.00;99794.47;4897739;29;20036;-89
2021/10/19 03:58:10;;;;;;;1.95;1.00;;;;;;;13.83;100.00;99798.81;4894634;29;20082;-88
2021/10/19 04:00:35;;;;;;;2.40;1.13;;;;;;;13.78;100.00;99771.63;4880481;29;20036;-87
2021/10/19 04:03:01;;;;;;;2.90;1.17;;;;;;;13.79;100.00;99774.13;4894767;29;20040;-88
2021/10/19 04:05:27;;;;;;;4.65;1.60;;;;;;;13.79;100.00;99767.91;4916864;29;20039;-88
2021/10/19 04:07:52;;;;;;;2.47;1.00;;;;;;;13.72;100.00;99745.53;4898790;29;20039;-89
2021/10/19 04:10:19;;;;;;;1.95;1.02;;;;;;;13.71;100.00;99727.66;4876856;29;20036;-89
2021/10/19 04:12:45;;;;;;;4.22;1.27;;;;;;;13.75;100.00;99734.25;4896145;29;20063;-88
2021/10/19 04:15:11;;;;;;;4.25;1.20;;;;;;;13.79;100.00;99744.41;4897008;29;20122;-87
2021/10/19 04:17:36;;;;;;;2.55;0.98;;;;;;;13.72;100.00;99732.84;4883079;29;20494;-89
2021/10/19 04:20:03;;;;;;;1.98;1.13;;;;;;;13.79;100.00;99738.19;4906388;29;20098;-88
2021/10/19 04:22:29;;;;;;;5.93;2.35;;;;;;;13.72;100.00;99722.03;4907906;29;20159;-87
2021/10/19 04:24:55;;;;;;;2.72;1.00;;;;;;;13.68;100.00;99711.88;4883936;29;20126;-88
2021/10/19 04:27:21;;;;;;;1.80;1.20;;;;;;;13.78;100.00;99714.91;4886553;29;20050;-88
2021/10/19 04:29:47;;;;;;;2.97;1.10;;;;;;;13.79;100.00;99714.69;4897317;29;20055;-88
2021/10/19 04:32:14;;;;;;;2.97;1.23;;;;;;;13.75;100.00;99710.78;4895966;29;20457;-87
2021/10/19 04:34:39;;;;;;;2.40;0.90;;;;;;;13.74;100.00;99705.59;4885494;29;20062;-88
2021/10/19 04:37:05;;;;;;;3.85;1.38;;;;;;;13.75;100.00;99705.38;4896240;29;20462;-88
2021/10/19 04:39:31;;;;;;;3.97;1.20;;;;;;;13.71;100.00;99685.25;4913156;29;20115;-88
2021/10/19 04:41:57;;;;;;;2.47;1.10;;;;;;;13.78;100.00;99682.47;4883028;29;20077;-87
2021/10/19 04:44:23;;;;;;;2.47;1.02;;;;;;;13.82;100.00;99681.00;4882285;29;20040;-88
2021/10/19 04:46:49;;;;;;;1.80;1.13;;;;;;;13.78;100.00;99663.56;4882322;29;20063;-87
2021/10/19 04:49:15;;;;;;;1.55;1.00;;;;;;;13.75;100.00;99662.13;4889786;29;20113;-88
2021/10/19 04:51:41;;;;;;;2.50;1.15;;;;;;;13.80;100.00;99667.69;4883458;29;20044;-88
2021/10/19 04:54:07;;;;;;;2.13;1.42;;;;;;;13.75;100.00;99664.84;4901486;29;20165;-89
2021/10/19 04:56:33;;;;;;;2.22;1.10;;;;;;;13.77;100.00;99651.13;4903425;29;20043;-87
2021/10/19 04:59:01;;;;;;;2.92;1.30;;;;;;;13.80;100.00;99653.38;4901398;29;20122;-88
2021/10/19 05:01:27;;;;;;;2.25;1.23;;;;;;;13.80;100.00;99661.47;4900719;29;20493;-89
2021/10/19 05:03:53;;;;;;;5.35;1.60;;;;;;;13.76;100.00;99660.25;4900982;29;20029;-87
2021/10/19 05:06:21;;;;;;;3.78;1.50;;;;;;;13.86;100.00;99657.88;4902190;29;20043;-87
2021/10/19 05:08:47;;;;;;;2.40;1.50;;;;;;;13.87;100.00;99658.72;4883919;29;20046;-88
2021/10/19 05:11:12;;;;;;;4.13;1.45;;;;;;;13.77;100.00;99638.44;4907563;29;20203;-88
2021/10/19 05:13:38;;;;;;;4.47;1.33;;;;;;;13.87;100.00;99640.63;4885016;29;20042;-89
2021/10/19 05:16:04;;;;;;;6.55;1.55;;;;;;;13.89;100.00;99643.91;4883237;29;20088;-87
2021/10/19 05:18:30;;;;;;;6.97;1.80;;;;;;;13.85;100.00;99632.72;4882243;29;20039;-88
2021/10/19 05:20:55;;;;;;;5.03;1.58;;;;;;;13.93;100.00;99633.50;4885690;29;20031;-88
2021/10/19 05:23:21;;;;;;;4.63;1.63;;;;;;;13.79;100.00;99603.09;4902671;29;20035;-88
2021/10/19 05:25:47;;;;;;;2.90;1.52;;;;;;;13.92;100.00;99623.72;4901522;29;20044;-87
2021/10/19 05:28:12;;;;;;;3.92;1.60;;;;;;;13.94;100.00;99622.44;4896811;29;20043;-87
2021/10/19 05:30:38;;;;;;;3.70;1.92;;;;;;;13.96;100.00;99617.63;4902807;29;20051;-89
2021/10/19 05:33:04;;;;;;;7.35;2.17;;;;;;;13.98;100.00;99604.75;4900566;29;20050;-87
2021/10/19 05:35:30;;;;;;;3.85;1.52;;;;;;;14.02;100.00;99605.91;4899348;29;20367;-90
2021/10/19 05:37:56;;;;;;;6.15;1.98;;;;;;;14.04;100.00;99592.19;4901592;29;20069;-88
2021/10/19 05:40:23;;;;;;;5.93;1.77;;;;;;;13.97;100.00;99576.06;4884461;29;20526;-88
2021/10/19 05:42:48;;;;;;;3.20;1.30;;;;;;;14.04;100.00;99587.59;4885662;29;20078;-88
2021/10/19 05:45:14;;;;;;;5.72;1.90;;;;;;;14.06;100.00;99582.81;4886558;29;20075;-87
2021/10/19 05:47:42;;;;;;;7.38;2.17;;;;;;;14.05;100.00;99569.50;4888221;29;20039;-88
2021/10/19 05:50:09;;;;;;;3.88;1.60;;;;;;;14.07;100.00;99564.69;4910305;29;20043;-89
2021/10/19 05:52:35;;;;;;;5.95;1.92;;;;;;;14.05;100.00;99559.53;4903705;29;20062;-88
2021/10/19 05:55:01;;;;;;;4.05;1.90;;;;;;;14.07;100.00;99570.09;4887269;29;20486;-88
2021/10/19 05:57:26;;;;;;;1.38;0.90;;;;;;;14.03;100.00;99556.22;4885438;29;20063;-88
2021/10/19 05:59:52;;;;;;;3.83;1.40;;;;;;;14.10;100.00;99561.53;4885251;29;20051;-89
2021/10/19 06:02:18;;;;;;;5.47;1.50;;;;;;;14.09;100.00;99557.19;4877501;29;20050;-87
2021/10/19 06:04:43;;;;;;;2.58;0.95;;;;;;;14.13;100.00;99552.16;4900168;29;20031;-87
2021/10/19 06:07:09;;;;;;;2.13;1.00;;;;;;;14.14;100.00;99557.34;4884033;29;20039;-88
2021/10/19 06:09:36;;;;;;;1.85;1.00;;;;;;;14.14;100.00;99553.81;4894774;29;20102;-88
2021/10/19 06:12:01;;;;;;;3.72;1.42;;;;;;;14.14;100.00;99559.22;4883347;29;20474;-87
2021/10/19 06:14:27;;;;;;;2.05;0.80;;;;;;;14.17;100.00;99558.75;4900515;29;20047;-89
2021/10/19 06:16:53;;;;;;;2.65;0.90;;;;;;;14.11;100.00;99549.69;4884314;29;20031;-86
2021/10/19 06:19:19;;;;;;;1.10;0.80;;;;;;;14.15;100.00;99550.88;4884742;29;20393;-87
2021/10/19 06:21:45;;;;;;;2.35;1.00;;;;;;;14.21;100.00;99549.13;4914453;29;20044;-88
2021/10/19 06:24:11;;;;;;;3.70;0.90;;;;;;;14.17;100.00;99529.03;4907966;29;20080;-87
2021/10/19 06:26:37;;;;;;;0.95;0.77;;;;;;;14.25;100.00;99537.63;4917093;29;20405;-86
2021/10/19 06:29:06;;;;;;;2.38;0.68;;;;;;;14.26;100.00;99533.03;4902232;29;20468;-88
2021/10/19 06:31:32;;;;;;;0.80;0.57;;;;;;;14.32;100.00;99544.84;4905053;29;20118;-88
2021/10/19 06:33:58;;;;;;;1.10;0.70;;;;;;;14.35;100.00;99545.19;4886951;29;20050;-89
2021/10/19 06:36:24;;;;;;;1.42;0.75;;;;;;;14.29;100.00;99532.59;4905502;29;20046;-89
2021/10/19 06:38:50;;;;;;;1.05;0.77;;;;;;;14.30;100.00;99535.06;4887632;29;20048;-89
2021/10/19 06:41:16;;;;;;;1.38;0.80;;;;;;;14.45;100.00;99552.75;4885440;29;20054;-89
2021/10/19 06:43:42;;;;;;;1.02;0.70;;;;;;;14.41;100.00;99532.63;4886951;29;20040;-88
2021/10/19 06:46:07;;;;;;;1.27;0.90;;;;;;;14.42;100.00;99536.97;4885696;29;20074;-89
2021/10/19 06:48:33;;;;;;;0.82;0.60;;;;;;;14.37;100.00;99516.06;4901014;29;20036;-89
2021/10/19 06:50:59;;;;;;;3.55;0.80;;;;;;;14.44;100.00;99524.88;4896419;29;20051;-89
2021/10/19 06:53:25;;;;;;;6.82;1.25;;;;;;;14.46;100.00;99509.25;4901062;29;20071;-89
2021/10/19 06:55:50;;;;;;;3.05;1.00;;;;;;;14.49;100.00;99514.19;4883062;29;20390;-89
2021/10/19 06:58:16;;;;;;;2.92;1.15;;;;;;;14.48;100.00;99512.53;4893953;29;20114;-88
2021/10/19 07:00:42;;;;;;;2.45;1.33;;;;;;;14.47;100.00;99508.22;4890018;29;20174;-88
2021/10/19 07:03:08;;;;;;;1.63;1.05;;;;;;;14.59;100.00;99526.38;4915214;29;20389;-88
2021/10/19 07:05:34;;;;;;;1.60;1.00;;;;;;;14.60;100.00;99517.19;4899505;29;20043;-88
2021/10/19 07:08:00;;;;;;;1.35;0.80;;;;;;;14.58;100.00;99512.03;4886989;29;20420;-88
2021/10/19 07:10:26;;;;;;;0.95;0.68;;;;;;;14.65;100.00;99526.25;4898624;29;20044;-90
2021/10/19 07:12:51;;;;;;;1.73;1.00;;;;;;;14.54;100.00;99494.59;4889730;29;20053;-88
2021/10/19 07:15:17;;;;;;;1.35;0.82;;;;;;;14.63;100.00;99517.56;4901364;29;20255;-89
2021/10/19 07:17:43;;;;;;;1.50;1.05;;;;;;;14.65;100.00;99511.91;4909314;29;20524;-89
2021/10/19 07:20:11;;;;;;;1.70;1.00;;;;;;;14.56;100.00;99486.25;4906745;29;20046;-89
2021/10/19 07:22:37;;;;;;;3.17;1.75;;;;;;;14.66;100.00;99490.03;4898778;29;20032;-88
2021/10/19 07:25:04;;;;;;;1.85;1.40;;;;;;;14.68;100.00;99490.59;4908345;29;20043;-89
2021/10/19 07:27:31;;;;;;;7.55;2.50;;;;;;;14.75;100.00;99493.22;4899187;29;20039;-89
2021/10/19 07:29:58;;;;;;;2.00;0.98;;;;;;;14.81;100.00;99492.25;4884060;29;20050;-88
2021/10/19 07:32:25;;;;;;;2.40;1.38;;;;;;;14.84;100.00;99488.25;4899376;29;20103;-88
2021/10/19 07:34:52;;;;;;;5.05;1.73;;;;;;;14.85;100.00;99496.16;4890905;29;20519;-90
2021/10/19 07:37:17;;;;;;;2.58;1.25;;;;;;;14.86;100.00;99488.84;4910790;29;20023;-89
2021/10/19 07:39:43;;;;;;;8.05;1.20;;;;;;;14.83;100.00;99484.75;4914088;29;20066;-89
2021/10/19 07:42:10;;;;;;;11.30;0.88;;;;;;;14.91;100.00;99502.50;4901899;29;20497;-88
2021/10/19 07:44:36;;;;;;;1.13;0.80;;;;;;;14.83;100.00;99482.03;4899849;29;20039;-90
2021/10/19 07:47:01;;;;;;;0.60;0.60;;;;;;;14.92;100.00;99487.91;4895936;29;20463;-90
2021/10/19 07:49:27;;;;;;;0.40;0.40;;;;;;;15.00;100.00;99495.69;4882920;29;20053;-88
2021/10/19 07:51:56;;;;;;;0.93;0.60;;;;;;;15.08;100.00;99508.88;4886830;29;20508;-89
2021/10/19 07:54:42;;;;;;;0.90;0.60;;;;;;;15.13;100.00;99497.31;4904042;29;20047;-89
2021/10/19 07:57:07;;;;;;;1.08;0.70;;;;;;;15.13;100.00;99494.63;4899591;29;20141;-89
2021/10/19 07:59:33;;;;;;;2.20;0.90;;;;;;;15.16;100.00;99486.88;4876623;29;20454;-88
2021/10/19 08:02:02;;;;;;;1.80;1.27;;;;;;;15.19;100.00;99490.97;4897348;29;20123;-88
2021/10/19 08:04:27;;;;;;;2.08;0.90;;;;;;;15.11;100.00;99489.44;4896068;29;20039;-89
2021/10/19 08:06:53;;;;;;;0.55;0.47;;;;;;;15.09;100.00;99482.63;4886268;29;20035;-88
2021/10/19 08:09:19;;;;;;;0.40;0.40;;;;;;;15.15;100.00;99492.50;4883188;29;20047;-88
2021/10/19 08:11:46;;;;;;;0.57;0.55;;;;;;;15.15;100.00;99490.63;4898254;29;20084;-89
2021/10/19 08:14:11;;;;;;;1.48;0.50;;;;;;;15.12;100.00;99477.56;4915276;29;20048;-91
2021/10/19 08:16:37;;;;;;;1.65;0.68;;;;;;;15.09;100.00;99474.50;4918026;29;20036;-88
2021/10/19 08:19:03;;;;;;;0.65;0.65;;;;;;;15.23;100.00;99496.72;4900611;29;20043;-89
2021/10/19 08:21:31;;;;;;;0.60;0.50;;;;;;;15.16;100.00;99464.34;4887414;29;20051;-88
2021/10/19 08:23:58;;;;;;;0.50;0.43;;;;;;;15.24;100.00;99477.56;4896098;29;20102;-90
2021/10/19 08:26:29;;;;;;;0.55;0.55;;;;;;;15.24;100.00;99493.81;4902513;29;20127;-89
2021/10/19 08:28:59;;;;;;;0.50;0.50;;;;;;;15.24;100.00;99491.09;4900904;29;20370;-89
2021/10/19 08:31:25;;;;;;;1.63;0.40;;;;;;;15.29;100.00;99496.59;4900427;29;20024;-89
2021/10/19 08:33:52;;;;;;;2.33;0.52;;;;;;;15.25;100.00;99489.19;4912231;29;20103;-88
2021/10/19 08:36:18;;;;;;;1.23;0.40;;;;;;;15.37;100.00;99515.22;4896286;29;20040;-90
2021/10/19 08:38:45;;;;;;;0.57;0.40;;;;;;;15.35;100.00;99503.78;4885892;29;20087;-90
2021/10/19 08:41:11;;;;;;;0.50;0.50;;;;;;;15.44;100.00;99528.63;4900224;29;20040;-91
2021/10/19 08:43:41;;;;;;;4.63;0.80;;;;;;;15.36;100.00;99521.69;4883206;29;20047;-91
2021/10/19 08:46:08;;;;;;;0.50;0.50;;;;;;;15.53;100.00;99534.47;4933277;29;20050;-91
2021/10/19 08:48:35;;;;;;;0.75;0.68;;;;;;;15.65;100.00;99529.06;4912921;29;20126;-91
2021/10/19 08:51:01;;;;;;;0.90;0.70;;;;;;;15.73;100.00;99517.88;4900886;29;20454;-92
2021/10/19 08:53:27;;;;;;;1.48;0.82;;;;;;;16.05;100.00;99518.22;4884931;29;20043;-92
2021/10/19 08:55:53;;;;;;;0.80;0.70;;;;;;;16.16;100.00;99492.94;4902106;29;20043;-92
2021/10/19 08:58:19;;;;;;;0.47;0.47;;;;;;;16.49;100.00;99511.19;4909692;29;20393;-90
2021/10/19 09:00:45;;;;;;;0.57;0.50;;;;;;;16.45;100.00;99510.00;4885809;29;20040;-93
2021/10/19 09:03:11;;;;;;;0.40;0.40;;;;;;;16.42;100.00;99504.25;4901076;29;20047;-91
2021/10/19 09:05:37;;;;;;;0.40;0.40;;;;;;;16.44;100.00;99505.66;4907629;29;20050;-92
2021/10/19 09:08:09;;;;;;;0.50;0.50;;;;;;;16.46;100.00;99500.81;4901096;29;20047;-92
2021/10/19 09:10:42;;;;;;;0.40;0.40;;;;;;;16.66;100.00;99513.06;4893252;29;20043;-92
2021/10/19 09:13:09;;;;;;;0.30;0.30;;;;;;;16.68;100.00;99514.47;4898472;29;20044;-92
2021/10/19 09:15:37;;;;;;;0.47;0.40;;;;;;;16.56;100.00;99507.47;4893141;29;20461;-92
2021/10/19 09:18:05;;;;;;;0.40;0.40;;;;;;;16.62;100.00;99506.50;4902166;29;20313;-91
2021/10/19 09:20:35;;;;;;;0.82;0.52;;;;;;;16.60;100.00;99500.50;4913223;29;20044;-92
2021/10/19 09:23:03;;;;;;;0.70;0.45;;;;;;;16.56;100.00;99505.56;4902061;29;20023;-91
2021/10/19 09:25:34;;;;;;;0.50;0.50;;;;;;;16.43;100.00;99524.88;4917408;29;20059;-93
2021/10/19 09:28:02;;;;;;;2.28;0.50;;;;;;;16.47;100.00;99516.03;4885089;29;20049;-91
2021/10/19 09:30:47;;;;;;;0.40;0.40;;;;;;;16.57;100.00;99520.81;4880659;29;20047;-87
2021/10/19 09:33:19;;;;;;;1.85;0.50;;;;;;;16.66;100.00;99519.31;4891324;29;20042;-87
2021/10/19 09:35:50;;;;;;;1.60;0.93;;;;;;;16.91;100.00;99515.41;4885959;29;20048;-87
2021/10/19 09:38:17;;;;;;;2.08;0.50;;;;;;;16.95;100.00;99516.56;4914570;29;20023;-87
2021/10/19 09:40:45;;;;;;;0.57;0.50;;;;;;;17.04;100.00;99527.81;4884050;29;20044;-87
2021/10/19 09:43:17;;;;;;;5.00;0.60;;;;;;;16.94;100.00;99511.38;4915506;29;20040;-87
2021/10/19 09:45:45;;;;;;;1.73;0.60;;;;;;;16.86;100.00;99502.59;4886889;29;20031;-88
2021/10/19 09:48:16;;;;;;;3.03;0.80;;;;;;;16.88;100.00;99516.75;4902611;29;20502;-87
2021/10/19 09:50:43;;;;;;;0.82;0.60;;;;;;;16.78;100.00;99526.63;4909253;29;20505;-87
2021/10/19 09:53:13;;;;;;;3.92;0.77;;;;;;;16.62;100.00;99509.22;4918371;29;20461;-86
2021/10/19 09:55:40;;;;;;;1.13;0.75;;;;;;;16.67;100.00;99528.28;4887226;29;20039;-87
2021/10/19 09:58:06;;;;;;;2.10;0.98;;;;;;;16.47;100.00;99507.06;4887517;29;20397;-87
2021/10/19 10:00:34;;;;;;;4.13;1.10;;;;;;;16.46;100.00;99510.84;4887973;29;20042;-87
2021/10/19 10:03:03;;;;;;;4.57;1.13;;;;;;;16.51;100.00;99512.81;4903798;29;20500;-87
2021/10/19 10:05:30;;;;;;;1.38;0.65;;;;;;;16.47;100.00;99509.78;4905993;29;20044;-87
2021/10/19 10:08:00;;;;;;;7.82;0.70;;;;;;;16.63;100.00;99506.25;4888331;29;20405;-87
2021/10/19 10:10:28;;;;;;;2.85;0.70;;;;;;;16.68;100.00;99487.34;4911362;29;20127;-87
2021/10/19 10:13:02;;;;;;;0.60;0.60;;;;;;;16.88;100.00;99508.59;4915096;29;20055;-88
2021/10/19 10:15:32;;;;;;;3.67;0.90;;;;;;;16.77;100.00;99498.63;4902923;29;20067;-87
2021/10/19 10:18:02;;;;;;;4.18;0.75;;;;;;;16.64;100.00;99507.88;4899586;29;20473;-87
2021/10/19 10:20:40;;;;;;;4.57;0.88;;;;;;;16.58;100.00;99519.72;4901676;29;20039;-87
2021/10/19 10:23:20;;;;;;;2.40;0.65;;;;;;;16.49;100.00;99521.22;4891938;29;20040;-86
2021/10/19 10:25:48;;;;;;;3.63;0.70;;;;;;;16.39;100.00;99508.28;4879499;29;20063;-89
2021/10/19 10:28:25;;;;;;;1.58;0.52;;;;;;;16.37;100.00;99499.56;4897791;29;20540;-87
2021/10/19 10:30:51;;;;;;;1.48;0.70;;;;;;;16.38;100.00;99497.66;4914024;29;20485;-87
2021/10/19 10:33:17;;;;;;;1.83;0.88;;;;;;;16.46;100.00;99498.09;4886725;29;20050;-86
2021/10/19 10:35:47;;;;;;;2.53;0.60;;;;;;;16.58;100.00;99498.03;4918187;29;20462;-91
2021/10/19 10:38:13;;;;;;;2.20;0.80;;;;;;;16.65;100.00;99508.72;4903365;29;20122;-91
2021/10/19 10:40:41;;;;;;;16.00;1.42;;;;;;;16.66;100.00;99481.31;4902401;29;20066;-91
2021/10/19 10:43:25;;;;;;;5.00;0.93;;;;;;;16.83;100.00;99478.66;4910931;29;20036;-91
2021/10/19 10:46:20;;;;;;;6.05;0.70;;;;;;;17.43;100.00;99493.31;4900579;29;20137;-92
2021/10/19 10:48:46;;;;;;;1.23;0.68;;;;;;;17.79;100.00;99500.06;4912348;29;20075;-91
2021/10/19 10:51:14;;;;;;;3.78;0.98;;;;;;;17.62;100.00;99482.16;4901004;29;20063;-91
2021/10/19 10:53:45;;;;;;;2.20;1.10;;;;;;;17.54;100.00;99494.28;4885555;29;20044;-92
2021/10/19 10:56:13;;;;;;;3.72;1.80;;;;;;;17.71;100.00;99496.94;4896089;29;20036;-91
2021/10/19 10:58:41;;;;;;;3.90;1.35;;;;;;;17.67;100.00;99488.47;4887455;29;20126;-91
2021/10/19 11:01:27;;;;;;;5.88;1.95;;;;;;;17.92;100.00;99512.47;4918916;29;20031;-90
2021/10/19 11:04:04;;;;;;;9.77;3.53;;;;;;;18.10;100.00;99491.41;4887524;29;20072;-91
2021/10/19 11:06:30;;;;;;;5.00;2.28;;;;;;;18.42;100.00;99499.66;4903273;29;20034;-91
2021/10/19 11:08:58;;;;;;;10.32;3.92;;;;;;;18.27;100.00;99505.75;4902652;29;20035;-90
2021/10/19 11:11:24;;;;;;;9.25;1.85;;;;;;;18.31;99.92;99504.16;4908129;29;20032;-90
2021/10/19 11:14:01;;;;;;;9.73;3.03;;;;;;;18.24;98.86;99501.63;4902797;29;20059;-92
2021/10/19 11:16:52;;;;;;;10.93;4.07;;;;;;;18.21;99.21;99501.34;4902766;29;20058;-91
2021/10/19 11:19:21;;;;;;;8.73;3.47;;;;;;;18.06;99.63;99518.31;4903250;29;20159;-90
2021/10/19 11:21:51;;;;;;;7.95;3.78;;;;;;;17.91;100.00;99520.84;4903289;29;20168;-92